Time;durP1;ratioP1;P1;durP2;ratioP2;P2;SDS_P1;SDS_P2;PMS_P1;PMS_P2;Temp;Humidity;BMP_temperature;BMP_pressure;BME280_temperature;BME280_humidity;BME280_pressure;Samples;Min_cycle;Max_cycle;Signal;HPM_P1;HPM_P2
2022/05/28 00:00:33;;;;;;;4.83;1.43;;;;;;;7.51;83.01;99268.47;4230085;28;20243;-62
2022/05/28 00:03:01;;;;;;;6.37;1.27;;;;;;;7.48;82.91;99263.50;4244113;28;20242;-65
2022/05/28 00:05:28;;;;;;;3.23;1.30;;;;;;;7.48;83.33;99268.78;4241283;28;20235;-64
2022/05/28 00:07:55;;;;;;;2.13;1.10;;;;;;;7.50;82.66;99272.13;4259269;28;20236;-64
2022/05/28 00:10:21;;;;;;;5.50;1.20;;;;;;;7.43;83.14;99263.13;4231505;28;20238;-66
2022/05/28 00:12:48;;;;;;;6.33;1.40;;;;;;;7.37;83.59;99264.56;4229904;28;20239;-64
2022/05/28 00:15:14;;;;;;;5.37;1.60;;;;;;;7.35;84.35;99274.47;4228088;28;20227;-65
2022/05/28 00:17:41;;;;;;;3.67;1.80;;;;;;;7.28;83.84;99276.06;4243744;28;21670;-68
2022/05/28 00:20:09;;;;;;;6.60;1.30;;;;;;;7.29;84.18;99283.03;4220759;28;20683;-65
2022/05/28 00:22:37;;;;;;;7.70;1.50;;;;;;;7.26;84.60;99275.38;4236985;28;20302;-67
2022/05/28 00:25:05;;;;;;;6.30;1.50;;;;;;;7.25;84.42;99271.09;4230300;28;20227;-64
2022/05/28 00:27:34;;;;;;;4.80;1.20;;;;;;;7.21;84.80;99272.38;4235989;28;20227;-64
2022/05/28 00:30:01;;;;;;;6.73;1.53;;;;;;;7.19;85.47;99273.38;4238159;28;23818;-64
2022/05/28 00:32:27;;;;;;;6.23;1.30;;;;;;;7.08;85.75;99272.75;4234139;28;20287;-67
2022/05/28 00:34:54;;;;;;;5.27;1.60;;;;;;;7.03;86.33;99278.50;4237300;28;20235;-64
2022/05/28 00:37:20;;;;;;;8.70;1.10;;;;;;;7.00;85.94;99275.31;4236625;28;20249;-65
2022/05/28 00:39:47;;;;;;;7.23;1.27;;;;;;;7.04;86.00;99272.22;4239382;28;21893;-66
2022/05/28 00:42:13;;;;;;;5.80;0.90;;;;;;;6.95;86.55;99271.34;4239107;28;20238;-65
2022/05/28 00:44:40;;;;;;;5.13;1.20;;;;;;;6.92;87.30;99266.31;4237509;28;20296;-64
2022/05/28 00:47:07;;;;;;;8.93;1.50;;;;;;;6.92;86.88;99270.78;4213708;28;20242;-63
2022/05/28 00:49:34;;;;;;;4.50;1.00;;;;;;;6.95;86.56;99266.03;4238581;28;21701;-63
2022/05/28 00:52:03;;;;;;;5.37;1.43;;;;;;;6.93;86.78;99256.56;4233669;28;20226;-63
2022/05/28 00:54:33;;;;;;;3.10;1.27;;;;;;;6.86;86.99;99260.78;4225571;28;21543;-64
2022/05/28 00:57:02;;;;;;;4.87;1.30;;;;;;;6.79;87.35;99259.72;4219822;28;20898;-64
2022/05/28 00:59:29;;;;;;;4.40;1.00;;;;;;;6.79;87.63;99250.00;4252048;28;20512;-64
2022/05/28 01:02:00;;;;;;;4.60;1.20;;;;;;;6.81;87.58;99255.13;4221688;28;20739;-64
2022/05/28 01:04:28;;;;;;;10.27;1.47;;;;;;;6.76;87.45;99255.56;4223146;28;20373;-65
2022/05/28 01:07:08;;;;;;;3.97;1.30;;;;;;;6.85;87.71;99248.56;4236805;28;20231;-66
2022/05/28 01:10:03;;;;;;;1.97;1.33;;;;;;;6.79;87.70;99249.16;4233113;28;21185;-64
2022/05/28 01:12:39;;;;;;;4.70;1.30;;;;;;;6.70;88.12;99251.72;4252139;28;21800;-64
2022/05/28 01:15:14;;;;;;;7.07;1.30;;;;;;;6.78;88.25;99255.44;4221881;28;20372;-65
2022/05/28 01:17:49;;;;;;;7.33;1.20;;;;;;;6.76;88.06;99250.28;4239901;28;20383;-65
2022/05/28 01:20:32;;;;;;;7.47;1.10;;;;;;;6.75;88.77;99249.47;4233334;28;20246;-65
2022/05/28 01:23:24;;;;;;;4.00;1.20;;;;;;;6.69;88.49;99251.88;4227494;28;20976;-63
2022/05/28 01:25:54;;;;;;;3.97;1.10;;;;;;;6.64;88.74;99244.38;4229550;28;20346;-66
2022/05/28 01:28:23;;;;;;;5.23;1.10;;;;;;;6.61;89.21;99247.34;4223433;28;20235;-63
2022/05/28 01:30:51;;;;;;;6.77;1.57;;;;;;;6.60;90.29;99243.00;4240819;28;21710;-63
2022/05/28 01:33:18;;;;;;;5.47;1.20;;;;;;;6.65;89.70;99248.72;4247017;28;23368;-64
2022/05/28 01:35:45;;;;;;;4.33;1.17;;;;;;;6.61;90.12;99244.69;4223248;28;21286;-62
2022/05/28 01:38:12;;;;;;;3.93;0.97;;;;;;;6.62;89.91;99243.69;4243187;28;20238;-66
2022/05/28 01:40:39;;;;;;;8.53;1.17;;;;;;;6.59;90.61;99228.16;4228564;28;20286;-63
2022/05/28 01:43:09;;;;;;;6.77;1.20;;;;;;;6.65;90.18;99232.84;4249165;28;20297;-64
2022/05/28 01:45:39;;;;;;;7.10;1.50;;;;;;;6.57;90.11;99229.28;4245962;28;20264;-64
2022/05/28 01:48:06;;;;;;;5.57;1.57;;;;;;;6.59;90.34;99238.72;4233451;28;20381;-64
2022/05/28 01:50:37;;;;;;;6.20;1.00;;;;;;;6.59;89.98;99233.44;4221290;28;20231;-64
2022/05/28 01:53:06;;;;;;;5.83;1.40;;;;;;;6.60;90.33;99229.78;4235307;28;20231;-67
2022/05/28 01:55:35;;;;;;;5.23;1.33;;;;;;;6.65;89.95;99226.72;4238352;28;20256;-64
2022/05/28 01:58:02;;;;;;;4.40;1.10;;;;;;;6.61;90.06;99225.38;4241116;28;20930;-64
2022/05/28 02:00:28;;;;;;;5.43;1.10;;;;;;;6.60;90.78;99232.44;4236528;28;21686;-64
2022/05/28 02:02:57;;;;;;;6.20;1.30;;;;;;;6.64;90.96;99230.34;4227088;28;20245;-64
2022/05/28 02:05:24;;;;;;;4.43;1.10;;;;;;;6.70;89.78;99224.47;4238248;28;21118;-64
2022/05/28 02:07:50;;;;;;;5.93;1.30;;;;;;;6.68;90.01;99221.16;4236444;28;21854;-64
2022/05/28 02:10:18;;;;;;;5.57;1.50;;;;;;;6.70;90.11;99224.47;4241112;28;20235;-64
2022/05/28 02:12:58;;;;;;;7.80;1.00;;;;;;;6.69;90.50;99223.63;4234359;28;20282;-64
2022/05/28 02:15:24;;;;;;;10.17;1.20;;;;;;;6.75;90.28;99214.28;4238062;28;22833;-65
2022/05/28 02:18:02;;;;;;;4.17;1.40;;;;;;;6.72;90.20;99215.41;4240592;28;20246;-64
2022/05/28 02:20:51;;;;;;;4.47;1.17;;;;;;;6.72;90.46;99212.75;4238398;28;21003;-64
2022/05/28 02:23:24;;;;;;;5.87;1.43;;;;;;;6.74;90.46;99209.94;4232878;28;21859;-64
2022/05/28 02:26:01;;;;;;;7.07;1.40;;;;;;;6.75;90.54;99207.16;4240390;28;20234;-68
2022/05/28 02:28:29;;;;;;;6.57;1.30;;;;;;;6.82;90.07;99217.16;4241538;28;22403;-65
2022/05/28 02:31:02;;;;;;;8.07;1.40;;;;;;;6.77;90.01;99209.66;4227214;28;20325;-64
2022/05/28 02:33:34;;;;;;;4.80;1.17;;;;;;;6.81;89.69;99199.59;4236387;28;25597;-65
2022/05/28 02:36:01;;;;;;;5.93;1.40;;;;;;;6.78;89.83;99205.19;4258725;28;20235;-66
2022/05/28 02:38:29;;;;;;;4.10;1.10;;;;;;;6.80;89.92;99204.06;4236942;28;21341;-68
2022/05/28 02:40:56;;;;;;;4.63;1.03;;;;;;;6.77;89.84;99204.38;4278559;28;20243;-64
2022/05/28 02:43:24;;;;;;;4.63;1.30;;;;;;;6.74;90.59;99208.16;4244747;28;20226;-65
2022/05/28 02:45:51;;;;;;;3.67;1.10;;;;;;;6.74;91.06;99200.22;4271314;28;21233;-63
2022/05/28 02:48:18;;;;;;;7.90;1.57;;;;;;;6.79;90.69;99193.63;4265096;28;22476;-65
2022/05/28 02:50:44;;;;;;;6.73;1.33;;;;;;;6.81;90.89;99194.31;4289885;28;20232;-65
2022/05/28 02:53:13;;;;;;;4.50;1.30;;;;;;;6.90;90.33;99194.22;4275318;28;24756;-63
2022/05/28 02:55:40;;;;;;;6.27;1.13;;;;;;;7.03;89.55;99193.88;4278100;28;21880;-64
2022/05/28 02:58:11;;;;;;;5.43;1.43;;;;;;;7.13;89.37;99199.88;4266388;28;22607;-65
2022/05/28 03:00:38;;;;;;;12.27;1.40;;;;;;;7.15;88.94;99197.91;4282047;28;20228;-63
2022/05/28 03:03:04;;;;;;;5.57;1.60;;;;;;;7.20;89.19;99200.09;4233938;28;20689;-64
2022/05/28 03:05:32;;;;;;;7.23;1.47;;;;;;;7.24;88.99;99205.94;4293717;28;22024;-63
2022/05/28 03:07:59;;;;;;;7.67;1.13;;;;;;;7.30;88.60;99198.19;4253581;28;25060;-64
2022/05/28 03:10:25;;;;;;;7.60;1.50;;;;;;;7.34;89.11;99196.06;4266578;28;20290;-63
2022/05/28 03:12:52;;;;;;;6.20;1.17;;;;;;;7.46;87.82;99200.13;4281960;28;20397;-64
2022/05/28 03:15:20;;;;;;;6.97;1.53;;;;;;;7.52;87.31;99202.16;4246401;28;21984;-66
2022/05/28 03:17:46;;;;;;;7.17;1.00;;;;;;;7.52;87.81;99199.50;4244883;28;20751;-66
2022/05/28 03:20:13;;;;;;;6.13;1.50;;;;;;;7.62;87.78;99202.03;4254357;28;20275;-65
2022/05/28 03:22:40;;;;;;;6.43;1.33;;;;;;;7.68;87.29;99203.22;4226360;28;22102;-66
2022/05/28 03:25:06;;;;;;;8.13;1.30;;;;;;;7.66;87.38;99202.56;4228257;28;20239;-64
2022/05/28 03:27:33;;;;;;;5.17;1.10;;;;;;;7.70;87.11;99199.47;4260567;28;20247;-64
2022/05/28 03:30:00;;;;;;;5.77;1.20;;;;;;;7.75;86.89;99201.59;4273484;28;21158;-65
2022/05/28 03:32:27;;;;;;;5.97;1.30;;;;;;;7.80;86.74;99196.69;4243180;28;22213;-65
2022/05/28 03:34:53;;;;;;;6.63;1.63;;;;;;;7.81;86.52;99193.03;4247752;28;20227;-67
2022/05/28 03:37:20;;;;;;;4.60;1.17;;;;;;;7.87;86.55;99197.72;4247127;28;21460;-65
2022/05/28 03:39:46;;;;;;;6.43;1.13;;;;;;;8.03;86.04;99196.97;4262111;28;20231;-65
2022/05/28 03:42:13;;;;;;;4.97;1.23;;;;;;;8.12;85.27;99189.88;4238112;28;20242;-65
2022/05/28 03:44:40;;;;;;;5.97;1.33;;;;;;;8.06;85.50;99187.88;4334029;28;21551;-65
2022/05/28 03:47:07;;;;;;;6.20;1.10;;;;;;;8.09;85.17;99200.78;4258279;28;20400;-65
2022/05/28 03:49:37;;;;;;;4.53;1.20;;;;;;;8.08;85.79;99193.81;4248055;28;20655;-66
2022/05/28 03:52:04;;;;;;;4.43;1.00;;;;;;;8.16;85.49;99201.81;4269950;28;20748;-64
2022/05/28 03:54:34;;;;;;;5.93;1.40;;;;;;;8.11;84.50;99193.53;4262476;28;20243;-66
2022/05/28 03:57:05;;;;;;;5.97;1.20;;;;;;;8.12;84.75;99195.16;4242842;28;22795;-65
2022/05/28 03:59:34;;;;;;;7.07;1.20;;;;;;;8.18;85.31;99198.00;4249568;28;21846;-64
2022/05/28 04:02:03;;;;;;;6.07;1.20;;;;;;;8.23;86.50;99198.34;4248456;28;20271;-65
2022/05/28 04:04:31;;;;;;;5.63;1.50;;;;;;;8.24;86.44;99209.78;4263199;28;21208;-64
2022/05/28 04:07:01;;;;;;;7.87;1.50;;;;;;;8.22;86.09;99207.31;4243134;28;20230;-66
2022/05/28 04:09:28;;;;;;;8.63;1.40;;;;;;;8.16;86.61;99207.13;4265485;28;20304;-66
2022/05/28 04:11:55;;;;;;;3.63;1.27;;;;;;;8.03;86.98;99203.09;4267863;28;20445;-63
2022/05/28 04:14:21;;;;;;;3.73;1.00;;;;;;;8.04;86.80;99201.28;4278959;28;20292;-65
2022/05/28 04:16:48;;;;;;;5.77;1.43;;;;;;;8.08;86.44;99201.75;4260168;28;20235;-67
2022/05/28 04:19:15;;;;;;;7.53;1.43;;;;;;;8.08;86.40;99201.75;4265119;28;21759;-64
2022/05/28 04:21:42;;;;;;;4.13;1.37;;;;;;;8.02;87.41;99209.38;4267816;28;20348;-64
2022/05/28 04:24:08;;;;;;;5.00;1.77;;;;;;;8.04;87.41;99195.97;4273473;28;21011;-64
2022/05/28 04:26:35;;;;;;;10.10;1.57;;;;;;;8.10;87.01;99202.44;4252928;28;20223;-65
2022/05/28 04:29:01;;;;;;;6.93;1.80;;;;;;;8.21;86.12;99202.16;4232616;28;20796;-63
2022/05/28 04:31:28;;;;;;;7.97;1.30;;;;;;;8.33;84.64;99203.50;4261277;28;20795;-65
2022/05/28 04:33:59;;;;;;;8.20;1.80;;;;;;;8.31;84.24;99210.81;4253363;28;21618;-63
2022/05/28 04:36:26;;;;;;;6.93;1.47;;;;;;;8.33;84.26;99206.16;4237743;28;20234;-64
2022/05/28 04:38:52;;;;;;;3.20;1.30;;;;;;;8.41;83.90;99203.59;4236018;28;20465;-64
2022/05/28 04:41:19;;;;;;;4.00;1.33;;;;;;;8.53;83.60;99198.00;4253416;28;20372;-66
2022/05/28 04:43:46;;;;;;;7.00;1.43;;;;;;;8.50;82.99;99204.44;4251244;28;20241;-63
2022/05/28 04:46:12;;;;;;;11.23;1.50;;;;;;;8.47;83.20;99203.94;4260084;28;20280;-67
2022/05/28 04:48:40;;;;;;;4.73;1.30;;;;;;;8.55;82.36;99209.25;4271411;28;22103;-67
2022/05/28 04:51:06;;;;;;;5.07;1.00;;;;;;;8.64;82.72;99205.66;4238570;28;20230;-66
2022/05/28 04:53:33;;;;;;;3.23;1.23;;;;;;;8.65;82.33;99204.63;4245193;28;21639;-65
2022/05/28 04:56:00;;;;;;;6.27;1.67;;;;;;;8.69;81.88;99197.19;4233748;28;22637;-65
2022/05/28 04:58:29;;;;;;;4.73;1.27;;;;;;;8.68;82.11;99208.78;4235740;28;20456;-66
2022/05/28 05:00:57;;;;;;;5.23;1.43;;;;;;;8.73;81.23;99215.25;4233029;28;20457;-65
2022/05/28 05:03:23;;;;;;;6.60;1.27;;;;;;;8.76;81.22;99208.81;4228091;28;20305;-64
2022/05/28 05:05:50;;;;;;;6.57;1.53;;;;;;;8.69;82.17;99213.09;4245044;28;22712;-63
2022/05/28 05:08:17;;;;;;;5.20;1.17;;;;;;;8.75;81.06;99223.03;4234985;28;20266;-64
2022/05/28 05:10:46;;;;;;;4.53;1.17;;;;;;;8.76;81.25;99214.94;4235793;28;20240;-65
2022/05/28 05:13:13;;;;;;;9.17;1.60;;;;;;;8.81;81.17;99212.63;4238571;28;21337;-66
2022/05/28 05:15:40;;;;;;;6.60;1.43;;;;;;;8.79;80.64;99219.91;4231936;28;20343;-64
2022/05/28 05:18:07;;;;;;;4.40;1.20;;;;;;;9.00;80.00;99211.47;4220707;28;20309;-63
2022/05/28 05:20:33;;;;;;;7.83;1.70;;;;;;;9.13;79.68;99205.69;4229510;28;20223;-63
2022/05/28 05:23:01;;;;;;;8.40;1.57;;;;;;;9.16;79.36;99210.66;4234005;28;20288;-64
2022/05/28 05:25:27;;;;;;;8.77;1.20;;;;;;;9.29;80.06;99220.75;4225363;28;20305;-64
2022/05/28 05:27:54;;;;;;;9.70;1.77;;;;;;;9.46;77.78;99221.59;4243971;28;20278;-64
2022/05/28 05:30:21;;;;;;;5.53;1.70;;;;;;;9.44;77.58;99215.63;4227151;28;20230;-64
2022/05/28 05:32:47;;;;;;;5.77;1.70;;;;;;;9.43;77.99;99221.91;4241947;28;20234;-68
2022/05/28 05:35:14;;;;;;;6.93;1.60;;;;;;;9.52;77.45;99216.41;4241197;28;20235;-63
2022/05/28 05:37:40;;;;;;;4.07;1.23;;;;;;;9.52;77.37;99204.97;4244389;28;20234;-66
2022/05/28 05:40:08;;;;;;;4.73;1.50;;;;;;;9.68;76.34;99220.88;4232894;28;20235;-65
2022/05/28 05:42:34;;;;;;;6.27;1.73;;;;;;;9.56;76.56;99216.94;4245460;28;21680;-66
2022/05/28 05:45:02;;;;;;;8.20;2.10;;;;;;;9.49;77.29;99215.94;4225413;28;20232;-64
2022/05/28 05:47:28;;;;;;;5.70;1.73;;;;;;;9.54;75.38;99226.88;4227003;28;23328;-65
2022/05/28 05:49:55;;;;;;;13.93;2.40;;;;;;;9.57;75.01;99213.25;4241014;28;21802;-66
2022/05/28 05:52:22;;;;;;;7.50;2.17;;;;;;;9.70;75.03;99224.19;4242398;28;21112;-64
2022/05/28 05:54:51;;;;;;;9.33;2.03;;;;;;;10.61;71.89;99223.91;4271884;28;21190;-67
2022/05/28 05:57:18;;;;;;;3.97;1.80;;;;;;;11.05;68.02;99223.25;4275186;28;20230;-67
2022/05/28 05:59:45;;;;;;;5.47;2.30;;;;;;;11.28;66.97;99221.41;4272064;28;21013;-66
2022/05/28 06:02:12;;;;;;;6.10;1.80;;;;;;;11.44;67.31;99227.63;4285723;28;20282;-69
2022/05/28 06:04:39;;;;;;;7.27;2.10;;;;;;;11.74;66.21;99231.97;4277350;28;20422;-66
2022/05/28 06:07:06;;;;;;;6.73;2.00;;;;;;;11.84;64.94;99229.88;4297723;28;20232;-67
2022/05/28 06:09:33;;;;;;;3.17;1.47;;;;;;;12.60;62.32;99235.00;4229413;28;20285;-66
2022/05/28 06:12:01;;;;;;;8.57;1.50;;;;;;;11.63;64.79;99221.75;4252371;28;20230;-65
2022/05/28 06:14:28;;;;;;;4.27;1.70;;;;;;;11.25;66.06;99224.44;4276281;28;20784;-63
2022/05/28 06:16:54;;;;;;;4.70;1.60;;;;;;;11.62;63.77;99223.59;4290634;28;20246;-65
2022/05/28 06:19:21;;;;;;;3.80;1.27;;;;;;;12.02;61.59;99220.72;4326318;28;23287;-66
2022/05/28 06:21:48;;;;;;;7.73;1.20;;;;;;;12.92;57.83;99232.88;4250678;28;22655;-68
2022/05/28 06:24:14;;;;;;;6.07;1.40;;;;;;;12.54;57.67;99222.41;4295064;28;20232;-68
2022/05/28 06:26:41;;;;;;;5.10;1.10;;;;;;;13.24;55.88;99210.16;4291459;28;20323;-67
2022/05/28 06:29:08;;;;;;;5.87;1.37;;;;;;;13.44;53.72;99215.72;4279642;28;21833;-67
2022/05/28 06:31:37;;;;;;;5.13;1.60;;;;;;;13.37;54.70;99227.34;4244375;28;20237;-72
2022/05/28 06:34:04;;;;;;;2.00;1.10;;;;;;;14.18;51.81;99216.19;4253695;28;20248;-67
2022/05/28 06:36:30;;;;;;;7.70;1.60;;;;;;;13.41;52.46;99229.44;4228409;28;20239;-69
2022/05/28 06:38:58;;;;;;;5.77;1.30;;;;;;;13.49;52.65;99232.00;4236633;28;20688;-66
2022/05/28 06:41:24;;;;;;;7.00;1.27;;;;;;;14.90;48.73;99234.38;4257749;28;21357;-67
2022/05/28 06:43:51;;;;;;;6.07;1.53;;;;;;;14.13;51.02;99216.78;4304353;28;20230;-65
2022/05/28 06:46:18;;;;;;;5.10;1.20;;;;;;;12.87;55.29;99221.94;4241943;28;22996;-66
2022/05/28 06:48:46;;;;;;;4.50;1.20;;;;;;;12.79;56.38;99211.41;4253085;28;20327;-66
2022/05/28 06:51:13;;;;;;;8.93;2.47;;;;;;;13.49;53.27;99210.63;4259924;28;20489;-68
2022/05/28 06:53:48;;;;;;;7.37;1.40;;;;;;;14.88;48.71;99215.00;4287781;28;20296;-66
2022/05/28 06:56:16;;;;;;;3.47;1.10;;;;;;;15.43;45.50;99222.06;4254621;28;20405;-67
2022/05/28 06:58:44;;;;;;;6.60;1.10;;;;;;;15.30;45.98;99230.94;4227286;28;20215;-65
2022/05/28 07:01:12;;;;;;;6.60;1.53;;;;;;;13.23;50.93;99223.75;4231291;28;20721;-68
2022/05/28 07:03:40;;;;;;;9.10;1.33;;;;;;;11.83;56.85;99212.22;4250452;28;20746;-65
2022/05/28 07:06:06;;;;;;;4.17;1.00;;;;;;;11.34;57.25;99203.91;4231917;28;22142;-72
2022/05/28 07:08:33;;;;;;;3.60;1.10;;;;;;;11.62;56.89;99212.13;4280872;28;21826;-64
2022/05/28 07:11:00;;;;;;;2.60;1.00;;;;;;;11.87;57.67;99207.41;4266736;28;20227;-65
2022/05/28 07:13:28;;;;;;;4.67;1.00;;;;;;;11.57;55.05;99207.34;4234030;28;21590;-67
2022/05/28 07:15:55;;;;;;;5.30;0.87;;;;;;;11.34;53.52;99214.56;4240143;28;20297;-64
2022/05/28 07:18:22;;;;;;;3.63;0.90;;;;;;;10.99;55.28;99199.00;4227956;28;21376;-67
2022/05/28 07:20:49;;;;;;;6.47;1.20;;;;;;;10.92;55.43;99206.06;4246459;28;20367;-63
2022/05/28 07:23:21;;;;;;;5.63;0.97;;;;;;;10.87;56.11;99205.75;4242080;28;20246;-64
2022/05/28 07:25:48;;;;;;;5.07;0.80;;;;;;;10.99;57.25;99192.88;4250492;28;24293;-65
2022/05/28 07:28:28;;;;;;;5.37;1.33;;;;;;;11.04;58.91;99185.16;4231739;28;20332;-65
2022/05/28 07:30:57;;;;;;;7.83;1.00;;;;;;;10.72;59.43;99187.09;4245680;28;20236;-64
2022/05/28 07:33:25;;;;;;;3.63;1.27;;;;;;;10.51;61.69;99195.69;4243234;28;20272;-65
2022/05/28 07:35:54;;;;;;;8.10;1.40;;;;;;;10.86;60.65;99198.75;4274739;28;20235;-65
2022/05/28 07:38:21;;;;;;;6.33;1.60;;;;;;;11.63;57.26;99197.78;4247707;28;20367;-64
2022/05/28 07:40:50;;;;;;;4.03;0.90;;;;;;;11.82;56.77;99197.25;4227553;28;21700;-63
2022/05/28 07:43:17;;;;;;;12.87;1.37;;;;;;;12.17;57.55;99200.19;4281599;28;23655;-66
2022/05/28 07:45:46;;;;;;;13.07;1.13;;;;;;;12.77;56.26;99213.41;4250527;28;20447;-63
2022/05/28 07:48:13;;;;;;;6.03;1.30;;;;;;;12.98;54.38;99226.78;4243651;28;21017;-64
2022/05/28 07:50:40;;;;;;;4.63;0.90;;;;;;;12.95;51.86;99216.50;4230612;28;23694;-67
2022/05/28 07:53:08;;;;;;;7.10;1.50;;;;;;;12.98;51.30;99221.44;4255211;28;20348;-63
2022/05/28 07:55:35;;;;;;;3.60;1.10;;;;;;;13.04;49.08;99215.34;4254920;28;20231;-63
2022/05/28 07:58:20;;;;;;;3.80;1.63;;;;;;;13.16;49.48;99217.47;4241644;28;20221;-63
2022/05/28 08:00:48;;;;;;;4.93;1.40;;;;;;;13.34;47.37;99217.88;4258122;28;20312;-63
2022/05/28 08:03:18;;;;;;;2.63;1.20;;;;;;;12.88;46.50;99236.97;4274027;28;20365;-65
2022/05/28 08:05:47;;;;;;;4.63;1.50;;;;;;;12.73;48.22;99220.16;4253729;28;20285;-65
2022/05/28 08:08:14;;;;;;;5.87;1.60;;;;;;;12.99;48.56;99228.41;4238675;28;20804;-63
2022/05/28 08:10:41;;;;;;;5.00;1.20;;;;;;;12.50;47.28;99218.44;4261113;28;20676;-66
2022/05/28 08:13:11;;;;;;;5.47;1.60;;;;;;;12.33;49.08;99211.69;4261606;28;21137;-71
2022/05/28 08:15:40;;;;;;;7.80;1.20;;;;;;;12.39;50.65;99216.28;4256648;28;20516;-69
2022/05/28 08:18:07;;;;;;;3.00;1.10;;;;;;;12.92;50.37;99222.19;4254275;28;20226;-67
2022/05/28 08:23:20;;;;;;;7.00;1.37;;;;;;;13.50;52.92;99214.94;4252809;28;20239;-69
2022/05/28 08:25:48;;;;;;;7.53;1.30;;;;;;;13.40;51.22;99214.44;4259147;28;22685;-70
2022/05/28 08:28:16;;;;;;;10.23;1.23;;;;;;;13.05;52.89;99208.16;4238981;28;21506;-67
2022/05/28 08:30:43;;;;;;;6.53;1.53;;;;;;;13.06;52.52;99213.31;4248752;28;21210;-66
2022/05/28 08:33:12;;;;;;;7.13;1.30;;;;;;;12.42;52.35;99199.88;4234219;28;20232;-66
2022/05/28 08:35:40;;;;;;;7.00;1.10;;;;;;;11.87;52.45;99201.19;4222927;28;20290;-67
2022/05/28 08:38:09;;;;;;;7.03;1.10;;;;;;;11.95;54.32;99196.63;4254786;28;20286;-66
2022/05/28 08:40:51;;;;;;;4.97;1.17;;;;;;;12.38;55.64;99203.94;4252003;28;20239;-69
2022/05/28 08:43:18;;;;;;;4.97;1.30;;;;;;;12.52;51.56;99195.06;4256060;28;20232;-69
2022/05/28 08:45:49;;;;;;;5.37;1.30;;;;;;;12.82;52.33;99208.34;4285271;28;23475;-75
2022/05/28 08:48:20;;;;;;;6.53;1.43;;;;;;;12.72;51.92;99205.16;4258328;28;22378;-67
2022/05/28 08:50:55;;;;;;;7.07;1.73;;;;;;;12.70;53.64;99201.84;4244332;28;20472;-70
2022/05/28 08:53:26;;;;;;;7.80;1.40;;;;;;;12.77;51.48;99202.75;4265044;28;21471;-66
2022/05/28 08:55:53;;;;;;;5.63;1.33;;;;;;;12.74;49.91;99197.78;4235939;28;20361;-71
2022/05/28 08:58:23;;;;;;;6.70;1.10;;;;;;;12.91;48.20;99190.34;4238956;28;20621;-68
2022/05/28 09:00:56;;;;;;;5.37;1.20;;;;;;;12.56;48.14;99206.22;4243153;28;20259;-66
2022/05/28 09:03:28;;;;;;;3.60;0.70;;;;;;;12.34;50.03;99211.50;4244219;28;20227;-66
2022/05/28 09:06:14;;;;;;;4.47;1.30;;;;;;;12.06;51.20;99206.03;4257430;28;20231;-66
2022/05/28 09:08:43;;;;;;;7.90;1.27;;;;;;;11.58;54.25;99208.97;4245203;28;20237;-69
2022/05/28 09:11:15;;;;;;;6.87;1.30;;;;;;;11.37;57.87;99206.19;4240285;28;20268;-69
2022/05/28 09:13:51;;;;;;;3.30;1.37;;;;;;;11.71;58.83;99208.38;4303646;28;20880;-66
2022/05/28 09:16:43;;;;;;;4.03;1.20;;;;;;;11.80;56.58;99209.94;4256874;28;21044;-66
2022/05/28 09:19:16;;;;;;;7.27;1.60;;;;;;;12.09;54.92;99202.97;4256560;28;20245;-68
2022/05/28 09:21:44;;;;;;;5.00;1.17;;;;;;;12.29;52.41;99200.56;4247262;28;20230;-67
2022/05/28 09:24:21;;;;;;;3.50;1.00;;;;;;;12.39;50.22;99193.09;4279554;28;20276;-66
2022/05/28 09:27:11;;;;;;;5.47;0.90;;;;;;;12.58;48.99;99196.19;4287674;28;21494;-67
2022/05/28 09:29:45;;;;;;;5.03;0.90;;;;;;;12.85;50.30;99202.59;4308515;28;23039;-66
2022/05/28 09:32:49;;;;;;;5.50;1.33;;;;;;;12.74;50.11;99203.94;4237107;28;20227;-67
2022/05/28 09:35:24;;;;;;;5.47;1.20;;;;;;;12.73;52.03;99196.13;4249629;28;20328;-68
2022/05/28 09:38:00;;;;;;;6.13;1.07;;;;;;;13.05;48.80;99200.16;4249122;28;20245;-70
2022/05/28 09:40:43;;;;;;;6.57;1.00;;;;;;;13.17;47.76;99197.78;4252806;28;20236;-68
2022/05/28 09:43:24;;;;;;;7.30;1.20;;;;;;;13.24;48.49;99190.66;4256102;28;20777;-62
2022/05/28 09:45:58;;;;;;;5.00;1.20;;;;;;;12.42;49.15;99189.22;4253942;28;20276;-68
2022/05/28 09:48:26;;;;;;;9.40;1.50;;;;;;;12.17;51.69;99178.84;4275860;28;26676;-67
2022/05/28 09:50:53;;;;;;;8.10;1.40;;;;;;;12.27;52.00;99185.75;4284396;28;23440;-69
2022/05/28 09:56:24;;;;;;;7.90;1.23;;;;;;;13.26;52.01;99175.25;4292237;28;20227;-69
2022/05/28 09:58:50;;;;;;;5.20;1.00;;;;;;;12.95;51.36;99179.09;4243463;28;20227;-66
2022/05/28 10:01:23;;;;;;;6.27;1.10;;;;;;;12.43;52.33;99196.19;4247209;28;20911;-69
2022/05/28 10:06:51;;;;;;;6.00;1.00;;;;;;;11.22;63.09;99208.81;4272881;28;21696;-65
2022/05/28 10:09:26;;;;;;;4.40;0.80;;;;;;;11.47;64.34;99203.25;4234201;28;20935;-66
2022/05/28 10:11:55;;;;;;;3.97;0.60;;;;;;;11.79;61.24;99210.94;4276274;28;20252;-65
2022/05/28 10:14:24;;;;;;;4.27;0.90;;;;;;;11.75;60.26;99209.66;4239321;28;22985;-67
2022/05/28 10:16:55;;;;;;;6.10;1.00;;;;;;;11.65;60.70;99206.41;4256058;28;20227;-66
2022/05/28 10:19:27;;;;;;;4.20;0.90;;;;;;;11.67;62.26;99220.41;4253011;28;20244;-66
2022/05/28 10:21:56;;;;;;;5.20;1.00;;;;;;;11.50;60.46;99218.91;4263987;28;20292;-66
2022/05/28 10:24:24;;;;;;;3.13;1.10;;;;;;;11.58;62.10;99230.28;4254445;28;20384;-65
2022/05/28 10:26:56;;;;;;;6.40;1.03;;;;;;;11.74;62.92;99218.66;4236674;28;20683;-66
2022/05/28 10:29:30;;;;;;;3.53;1.13;;;;;;;11.92;61.90;99226.34;4248056;28;20965;-65
2022/05/28 10:31:58;;;;;;;5.30;1.13;;;;;;;11.76;61.07;99232.63;4240815;28;20242;-65
2022/05/28 10:34:34;;;;;;;4.90;0.93;;;;;;;11.67;61.10;99216.91;4245994;28;22052;-64
2022/05/28 10:37:19;;;;;;;4.27;1.00;;;;;;;11.51;61.54;99225.88;4244714;28;20314;-65
2022/05/28 10:39:47;;;;;;;8.33;1.20;;;;;;;11.57;62.69;99206.53;4259128;28;20237;-66
2022/05/28 10:42:14;;;;;;;6.13;0.77;;;;;;;11.47;60.91;99211.25;4248876;28;20233;-66
2022/05/28 10:44:42;;;;;;;4.70;0.90;;;;;;;11.54;61.88;99214.84;4268888;28;20246;-67
2022/05/28 10:47:24;;;;;;;5.43;0.90;;;;;;;11.68;60.19;99224.69;4247842;28;20672;-68
2022/05/28 10:49:54;;;;;;;8.37;1.40;;;;;;;11.29;61.48;99223.09;4259078;28;20262;-67
2022/05/28 10:52:40;;;;;;;7.07;1.13;;;;;;;11.30;62.84;99214.06;4261743;28;20246;-68
2022/05/28 10:55:12;;;;;;;6.60;1.27;;;;;;;11.54;63.58;99237.03;4242538;28;20734;-67
2022/05/28 10:58:00;;;;;;;5.97;1.20;;;;;;;11.33;65.17;99207.56;4235566;28;20320;-66
2022/05/28 11:00:41;;;;;;;4.83;1.50;;;;;;;11.24;66.87;99225.47;4245701;28;21776;-69
2022/05/28 11:03:25;;;;;;;6.03;1.20;;;;;;;11.05;70.37;99226.78;4228279;28;20250;-66
2022/05/28 11:06:20;;;;;;;3.87;0.90;;;;;;;11.11;66.50;99227.88;4248095;28;20855;-68
2022/05/28 11:09:10;;;;;;;1.93;0.70;;;;;;;10.89;63.17;99245.53;4246696;28;20284;-66
2022/05/28 11:11:52;;;;;;;2.27;0.60;;;;;;;10.77;61.84;99242.44;4228613;28;25373;-65
2022/05/28 11:14:33;;;;;;;3.03;0.70;;;;;;;10.66;59.85;99256.94;4245303;28;21285;-65
2022/05/28 11:17:12;;;;;;;7.53;0.57;;;;;;;10.63;59.93;99256.44;4264923;28;20301;-67
2022/05/28 11:20:19;;;;;;;1.73;0.60;;;;;;;10.74;62.57;99259.56;4246866;28;20235;-66
2022/05/28 11:23:01;;;;;;;1.50;0.37;;;;;;;11.19;60.62;99257.09;4267567;28;20240;-69
2022/05/28 11:25:52;;;;;;;5.20;0.80;;;;;;;11.77;61.53;99249.44;4233634;28;20878;-64
2022/05/28 11:28:49;;;;;;;1.30;0.60;;;;;;;12.28;59.31;99246.91;4241102;28;20294;-66
2022/05/28 11:31:54;;;;;;;2.13;0.40;;;;;;;12.06;58.71;99254.00;4267661;28;20243;-66
2022/05/28 11:34:27;;;;;;;3.63;0.50;;;;;;;11.58;60.99;99251.63;4265412;28;20285;-67
2022/05/28 11:37:22;;;;;;;4.27;0.70;;;;;;;11.07;62.14;99245.22;4231713;28;20235;-66
2022/05/28 11:39:49;;;;;;;1.90;0.40;;;;;;;10.39;65.08;99260.88;4241630;28;25870;-68
2022/05/28 11:42:35;;;;;;;0.73;0.37;;;;;;;10.01;68.49;99257.19;4241000;28;20254;-67
2022/05/28 11:45:04;;;;;;;2.27;0.70;;;;;;;10.09;72.61;99250.03;4249138;28;21315;-68
2022/05/28 11:47:49;;;;;;;1.50;0.43;;;;;;;10.54;72.21;99245.03;4231438;28;20218;-65
2022/05/28 11:53:46;;;;;;;2.90;0.60;;;;;;;11.64;63.33;99228.75;4273438;28;21575;-66
2022/05/28 11:56:28;;;;;;;1.27;0.40;;;;;;;11.65;63.47;99224.25;4228252;28;25469;-68
2022/05/28 11:59:11;;;;;;;1.70;0.50;;;;;;;11.62;61.97;99209.47;4238051;28;20242;-67
2022/05/28 12:01:49;;;;;;;1.73;0.70;;;;;;;11.80;60.61;99214.44;4252100;28;20250;-65
2022/05/28 12:04:16;;;;;;;0.90;0.40;;;;;;;11.84;62.05;99213.06;4246863;28;20312;-67